createdAt,value
2018-02-24T00:00:23.493Z,76.30
2018-02-24T00:02:51.792Z,72.18
2018-02-24T00:05:20.038Z,70.70
2018-02-24T00:07:48.286Z,71.05
2018-02-24T00:10:17.367Z,70.50
2018-02-24T00:12:46.413Z,68.62
2018-02-24T00:15:14.643Z,71.25
2018-02-24T00:17:43.711Z,76.50
2018-02-24T00:20:11.981Z,88.07
2018-02-24T00:22:44.858Z,73.30
2018-02-24T00:25:13.151Z,70.35
2018-02-24T00:27:41.425Z,75.30
2018-02-24T00:30:09.839Z,74.10
2018-02-24T00:32:38.116Z,73.12
2018-02-24T00:35:06.381Z,73.03
2018-02-24T00:37:35.431Z,68.68
2018-02-24T00:40:03.691Z,75.10
2018-02-24T00:42:31.954Z,72.18
2018-02-24T00:45:00.264Z,75.03
2018-02-24T00:47:28.505Z,72.87
2018-02-24T00:49:56.778Z,81.25
2018-02-24T00:52:25.101Z,75.18
2018-02-24T00:54:53.365Z,72.50
2018-02-24T00:57:21.625Z,74.53
2018-02-24T00:59:49.920Z,76.93
2018-02-24T01:02:18.177Z,83.18
2018-02-24T01:04:46.427Z,99.25
2018-02-24T01:07:14.725Z,78.82
2018-02-24T01:09:42.974Z,79.72
2018-02-24T01:12:11.227Z,76.53
2018-02-24T01:14:40.284Z,120.43
2018-02-24T01:17:08.535Z,83.95
2018-02-24T01:19:36.804Z,82.12
2018-02-24T01:22:05.105Z,83.55
2018-02-24T01:24:33.373Z,75.62
2018-02-24T01:27:01.636Z,67.82
2018-02-24T01:29:29.926Z,57.67
2018-02-24T01:31:58.191Z,57.62
2018-02-24T01:34:26.442Z,59.03
2018-02-24T01:36:54.826Z,48.63
2018-02-24T01:39:23.082Z,55.67
2018-02-24T01:41:52.172Z,55.22
2018-02-24T01:44:20.457Z,56.78
2018-02-24T01:46:49.473Z,62.42
2018-02-24T01:49:17.739Z,51.70
2018-02-24T01:51:46.034Z,58.33
2018-02-24T01:54:14.268Z,53.80
2018-02-24T01:56:42.515Z,56.75
2018-02-24T01:59:10.823Z,53.95
2018-02-24T02:01:39.834Z,57.72
2018-02-24T02:04:08.126Z,54.30
2018-02-24T02:06:36.420Z,54.20
2018-02-24T02:09:04.676Z,53.87
2018-02-24T02:11:32.921Z,54.22
2018-02-24T02:14:01.994Z,53.08
2018-02-24T02:16:30.238Z,56.08
2018-02-24T02:18:58.487Z,56.00
2018-02-24T02:21:26.807Z,56.20
2018-02-24T02:23:55.049Z,55.50
2018-02-24T02:26:23.347Z,50.08
2018-02-24T02:28:51.655Z,54.92
2018-02-24T02:31:19.926Z,55.70
2018-02-24T02:33:48.185Z,52.22
2018-02-24T02:36:16.497Z,53.95
2018-02-24T02:38:44.769Z,55.33
2018-02-24T02:41:13.030Z,51.60
2018-02-24T02:43:41.342Z,48.92
2018-02-24T02:46:09.605Z,49.15
2018-02-24T02:48:37.870Z,48.28
2018-02-24T02:51:06.931Z,48.00
2018-02-24T02:53:35.216Z,51.85
2018-02-24T02:56:03.512Z,49.83
2018-02-24T02:58:31.804Z,51.50
2018-02-24T03:01:00.075Z,51.15
2018-02-24T03:03:29.095Z,50.65
2018-02-24T03:05:57.392Z,53.00
2018-02-24T03:08:25.652Z,51.17
2018-02-24T03:10:53.916Z,52.58
2018-02-24T03:13:22.289Z,51.80
2018-02-24T03:15:50.627Z,51.95
2018-02-24T03:18:18.897Z,50.95
2018-02-24T03:20:48.708Z,50.88
2018-02-24T03:23:16.995Z,50.22
2018-02-24T03:25:45.260Z,45.20
2018-02-24T03:28:13.570Z,56.47
2018-02-24T03:30:41.852Z,51.75
2018-02-24T03:33:10.880Z,52.45
2018-02-24T03:35:39.222Z,50.58
2018-02-24T03:38:08.250Z,51.20
2018-02-24T03:40:36.502Z,53.38
2018-02-24T03:43:04.812Z,50.53
2018-02-24T03:45:35.527Z,50.08
2018-02-24T03:48:03.778Z,51.25
2018-02-24T03:50:32.904Z,53.53
2018-02-24T03:53:01.160Z,52.10
2018-02-24T03:55:29.426Z,50.08
2018-02-24T03:57:57.717Z,52.42
2018-02-24T04:00:25.981Z,52.58
2018-02-24T04:02:54.230Z,52.58
2018-02-24T04:05:22.501Z,52.60
2018-02-24T04:07:50.744Z,52.67
2018-02-24T04:10:19.002Z,53.90
2018-02-24T04:12:47.296Z,52.17
2018-02-24T04:15:15.582Z,53.83
2018-02-24T04:17:43.828Z,52.08
2018-02-24T04:20:12.105Z,53.72
2018-02-24T04:22:40.362Z,54.03
2018-02-24T04:25:08.622Z,51.70
2018-02-24T04:27:37.687Z,49.50
2018-02-24T04:30:05.938Z,48.08
2018-02-24T04:32:34.209Z,49.45
2018-02-24T04:35:02.537Z,49.15
2018-02-24T04:37:31.576Z,45.45
2018-02-24T04:39:59.840Z,48.55
2018-02-24T04:42:28.133Z,47.13
2018-02-24T04:44:56.445Z,44.63
2018-02-24T04:47:24.738Z,47.33
2018-02-24T04:49:53.813Z,44.42
2018-02-24T04:52:22.083Z,42.53
2018-02-24T04:54:50.388Z,42.72
2018-02-24T04:57:18.674Z,41.17
2018-02-24T04:59:46.933Z,43.00
2018-02-24T05:02:15.945Z,42.67
2018-02-24T05:04:44.244Z,40.17
2018-02-24T05:07:12.518Z,39.75
2018-02-24T05:09:40.767Z,40.38
2018-02-24T05:12:09.858Z,36.75
2018-02-24T05:14:38.888Z,38.30
2018-02-24T05:17:07.985Z,36.53
2018-02-24T05:19:36.286Z,37.15
2018-02-24T05:22:04.538Z,37.40
2018-02-24T05:24:32.790Z,38.17
2018-02-24T05:27:01.079Z,36.58
2018-02-24T05:29:29.323Z,37.92
2018-02-24T05:31:58.338Z,36.35
2018-02-24T05:34:26.630Z,36.47
2018-02-24T05:36:54.896Z,34.55
2018-02-24T05:39:23.181Z,34.88
2018-02-24T05:41:51.477Z,38.28
2018-02-24T05:44:19.739Z,39.22
2018-02-24T05:46:47.996Z,36.38
2018-02-24T05:49:17.086Z,35.28
2018-02-24T05:51:45.335Z,34.05
2018-02-24T05:54:14.379Z,33.75
2018-02-24T05:56:42.692Z,35.17
2018-02-24T05:59:10.983Z,37.63
2018-02-24T06:01:40.004Z,32.70
2018-02-24T06:04:08.343Z,38.03
2018-02-24T06:06:36.593Z,31.90
2018-02-24T06:09:04.858Z,32.47
2018-02-24T06:11:33.180Z,34.15
2018-02-24T06:14:01.455Z,36.08
2018-02-24T06:16:30.469Z,34.40
2018-02-24T06:18:58.798Z,32.33
2018-02-24T06:21:27.087Z,36.58
2018-02-24T06:23:55.410Z,35.42
2018-02-24T06:26:23.742Z,32.75
2018-02-24T06:28:52.010Z,37.40
2018-02-24T06:31:20.304Z,32.13
2018-02-24T06:33:48.612Z,34.97
2018-02-24T06:36:16.898Z,37.25
2018-02-24T06:38:45.153Z,34.97
2018-02-24T06:41:13.465Z,34.10
2018-02-24T06:43:41.746Z,33.25
2018-02-24T06:46:10.077Z,33.08
2018-02-24T06:48:38.573Z,31.70
2018-02-24T06:51:06.888Z,33.35
2018-02-24T06:53:35.171Z,31.20
2018-02-24T06:56:03.517Z,33.20
2018-02-24T06:58:31.786Z,33.20
2018-02-24T07:01:00.091Z,31.10
2018-02-24T07:03:28.455Z,31.12
2018-02-24T07:05:56.735Z,28.98
2018-02-24T07:08:25.040Z,30.23
2018-02-24T07:10:53.631Z,26.92
2018-02-24T07:13:21.902Z,24.80
2018-02-24T07:15:50.186Z,26.35
2018-02-24T07:18:18.675Z,26.10
2018-02-24T07:20:47.985Z,26.20
2018-02-24T07:23:17.023Z,26.17
2018-02-24T07:25:45.628Z,26.60
2018-02-24T07:28:13.973Z,21.83
2018-02-24T07:30:42.244Z,20.50
2018-02-24T07:33:10.550Z,22.20
2018-02-24T07:35:38.822Z,23.00
2018-02-24T07:38:07.098Z,21.98
2018-02-24T07:40:36.224Z,23.67
2018-02-24T07:43:05.269Z,25.23
2018-02-24T07:45:34.385Z,19.15
2018-02-24T07:48:02.882Z,19.42
2018-02-24T07:50:31.143Z,19.58
2018-02-24T07:52:59.398Z,16.98
2018-02-24T07:55:27.723Z,14.98
2018-02-24T07:57:56.765Z,13.23
2018-02-24T08:00:25.040Z,9.57
2018-02-24T08:02:53.362Z,11.98
2018-02-24T08:05:21.636Z,11.98
2018-02-24T08:07:49.890Z,9.17
2018-02-24T08:10:18.227Z,12.30
2018-02-24T08:12:46.526Z,10.38
2018-02-24T08:15:14.820Z,11.00
2018-02-24T08:17:43.208Z,10.25
2018-02-24T08:20:11.485Z,11.43
2018-02-24T08:22:39.740Z,10.60
2018-02-24T08:25:08.054Z,9.37
2018-02-24T08:27:36.342Z,6.90
2018-02-24T08:30:04.702Z,6.60
2018-02-24T08:32:33.038Z,9.63
2018-02-24T08:35:01.461Z,7.80
2018-02-24T08:37:29.805Z,7.27
2018-02-24T08:39:58.149Z,5.80
2018-02-24T08:42:26.443Z,5.57
2018-02-24T08:44:54.754Z,4.57
2018-02-24T08:47:23.062Z,6.50
2018-02-24T08:49:52.090Z,6.05
2018-02-24T08:52:20.517Z,4.60
2018-02-24T08:54:48.904Z,5.93
2018-02-24T08:57:17.196Z,4.50
2018-02-24T08:59:45.884Z,8.13
2018-02-24T09:02:14.209Z,4.90
2018-02-24T09:04:42.460Z,9.23
2018-02-24T09:07:10.774Z,5.80
2018-02-24T09:09:39.030Z,4.57
2018-02-24T09:12:07.367Z,5.27
2018-02-24T09:14:35.801Z,3.80
2018-02-24T09:17:05.597Z,6.90
2018-02-24T09:19:34.730Z,6.03
2018-02-24T09:22:03.103Z,6.60
2018-02-24T09:24:31.346Z,6.10
2018-02-24T09:26:59.712Z,4.40
2018-02-24T09:29:27.987Z,5.13
2018-02-24T09:31:56.271Z,3.87
2018-02-24T09:34:24.623Z,5.30
2018-02-24T09:36:52.948Z,5.13
2018-02-24T09:39:21.355Z,4.97
2018-02-24T09:41:50.413Z,3.67
2018-02-24T09:44:18.689Z,5.83
2018-02-24T09:46:47.122Z,4.97
2018-02-24T09:49:15.401Z,5.73
2018-02-24T09:51:43.728Z,6.00
2018-02-24T09:54:12.858Z,4.50
2018-02-24T09:56:41.146Z,4.00
2018-02-24T09:59:09.409Z,4.10
2018-02-24T10:01:38.511Z,4.67
2018-02-24T10:04:06.851Z,6.00
2018-02-24T10:06:35.174Z,4.23
2018-02-24T10:09:03.549Z,5.33
2018-02-24T10:11:31.870Z,5.10
2018-02-24T10:14:00.173Z,5.13
2018-02-24T10:16:28.562Z,7.83
2018-02-24T10:18:58.335Z,6.03
2018-02-24T10:21:26.687Z,5.93
2018-02-24T10:23:55.055Z,4.53
2018-02-24T10:26:23.421Z,6.43
2018-02-24T10:28:52.308Z,4.70
2018-02-24T10:31:20.961Z,6.60
2018-02-24T10:33:49.331Z,5.13
2018-02-24T10:36:17.704Z,5.90
2018-02-24T10:54:00.324Z,6.73
2018-02-24T10:56:28.619Z,7.23
2018-02-24T10:58:57.079Z,6.03
2018-02-24T11:01:25.375Z,6.20
2018-02-24T11:03:53.925Z,6.10
2018-02-24T11:06:22.368Z,6.57
2018-02-24T11:08:50.625Z,7.83
2018-02-24T11:11:19.720Z,7.03
2018-02-24T11:13:48.108Z,8.20
2018-02-24T11:16:17.160Z,10.20
2018-02-24T11:18:45.475Z,6.47
2018-02-24T11:21:14.646Z,8.60
2018-02-24T11:23:43.107Z,7.90
2018-02-24T11:26:11.475Z,8.77
2018-02-24T11:28:39.746Z,7.90
2018-02-24T11:31:08.077Z,9.10
2018-02-24T11:33:36.522Z,7.50
2018-02-24T11:36:05.076Z,9.97
2018-02-24T11:38:33.421Z,9.57
2018-02-24T11:41:01.778Z,6.87
2018-02-24T11:43:30.173Z,8.33
2018-02-24T11:45:58.496Z,10.30
2018-02-24T11:48:26.824Z,9.20
2018-02-24T11:50:55.123Z,8.80
2018-02-24T11:53:23.465Z,7.47
2018-02-24T11:55:51.758Z,10.07
2018-02-24T11:58:20.140Z,7.77
2018-02-24T12:00:49.420Z,10.23
2018-02-24T12:03:17.874Z,8.67
2018-02-24T12:05:46.263Z,10.40
2018-02-24T12:08:15.439Z,12.20
2018-02-24T12:10:43.857Z,10.60
2018-02-24T12:13:12.205Z,11.17
2018-02-24T12:15:40.647Z,8.40
2018-02-24T12:18:09.569Z,7.87
2018-02-24T12:20:37.929Z,9.17
2018-02-24T12:23:06.298Z,7.40
2018-02-24T12:25:34.575Z,9.60
2018-02-24T12:28:02.899Z,10.67
2018-02-24T12:30:31.296Z,10.30
2018-02-24T12:32:59.618Z,10.97
2018-02-24T12:35:27.925Z,10.07
2018-02-24T12:37:56.224Z,10.33
2018-02-24T12:40:24.547Z,8.63
2018-02-24T12:42:52.804Z,9.70
2018-02-24T12:45:21.880Z,11.43
2018-02-24T12:47:50.325Z,9.20
2018-02-24T12:50:18.612Z,10.30
2018-02-24T12:52:46.930Z,10.80
2018-02-24T12:55:16.423Z,11.10
2018-02-24T12:57:45.502Z,11.87
2018-02-24T13:00:13.774Z,13.47
2018-02-24T13:02:42.081Z,9.87
2018-02-24T13:05:10.459Z,8.63
2018-02-24T13:07:38.732Z,10.73
2018-02-24T13:10:07.004Z,9.97
2018-02-24T13:12:35.469Z,11.97
2018-02-24T13:15:04.592Z,9.63
2018-02-24T13:17:32.919Z,14.30
2018-02-24T13:20:01.232Z,12.73
2018-02-24T13:22:30.255Z,12.60
2018-02-24T13:24:58.523Z,14.13
2018-02-24T13:27:26.823Z,29.70
2018-02-24T13:29:55.118Z,11.83
2018-02-24T13:32:23.393Z,18.73
2018-02-24T13:34:51.742Z,21.07
2018-02-24T13:37:19.989Z,14.00
2018-02-24T13:39:48.293Z,17.07
2018-02-24T13:42:16.554Z,16.03
2018-02-24T13:44:44.840Z,13.47
2018-02-24T13:47:13.981Z,34.47
2018-02-24T13:49:42.255Z,13.57
2018-02-24T13:52:10.612Z,12.23
2018-02-24T13:54:39.016Z,12.83
2018-02-24T13:57:07.267Z,12.03
2018-02-24T13:59:35.544Z,11.70
2018-02-24T14:02:03.980Z,14.70
2018-02-24T14:04:32.299Z,16.40
2018-02-24T14:07:00.592Z,11.10
2018-02-24T14:09:28.989Z,14.07
2018-02-24T14:11:57.253Z,13.23
2018-02-24T14:14:25.553Z,11.53
2018-02-24T14:16:54.636Z,13.83
2018-02-24T14:19:23.779Z,14.73
2018-02-24T14:21:52.114Z,12.13
2018-02-24T14:24:20.509Z,11.70
2018-02-24T14:26:48.841Z,14.10
2018-02-24T14:29:17.231Z,12.53
2018-02-24T14:31:45.657Z,12.20
2018-02-24T14:34:13.969Z,10.73
2018-02-24T14:36:42.350Z,12.87
2018-02-24T14:39:10.875Z,13.57
2018-02-24T14:41:39.277Z,13.60
2018-02-24T14:44:07.723Z,13.57
2018-02-24T14:46:36.087Z,16.00
2018-02-24T14:49:04.413Z,15.07
2018-02-24T14:51:32.821Z,27.40
2018-02-24T14:54:01.380Z,12.70
2018-02-24T14:56:29.682Z,11.87
2018-02-24T14:58:58.885Z,12.07
2018-02-24T15:01:27.202Z,13.60
2018-02-24T15:03:56.292Z,16.03
2018-02-24T15:06:24.595Z,12.30
2018-02-24T15:08:52.982Z,14.73
2018-02-24T15:11:21.236Z,14.07
2018-02-24T15:13:49.511Z,12.53
2018-02-24T15:16:17.853Z,13.87
2018-02-24T15:18:46.156Z,12.47
2018-02-24T15:21:14.430Z,14.23
2018-02-24T15:23:42.709Z,13.40
2018-02-24T15:26:11.886Z,15.27
2018-02-24T15:28:40.131Z,14.83
2018-02-24T15:31:08.471Z,15.63
2018-02-24T15:33:36.741Z,15.27
2018-02-24T15:36:05.012Z,14.57
2018-02-24T15:38:33.309Z,14.50
2018-02-24T15:41:01.584Z,11.90
2018-02-24T15:43:30.589Z,14.37
2018-02-24T15:45:58.844Z,12.40
2018-02-24T15:48:27.120Z,11.80
2018-02-24T15:50:55.478Z,10.50
2018-02-24T15:53:23.732Z,12.50
2018-02-24T15:55:52.041Z,12.10
2018-02-24T15:58:20.436Z,11.47
2018-02-24T16:00:50.167Z,11.17
2018-02-24T16:03:18.491Z,12.17
2018-02-24T16:05:47.652Z,12.63
2018-02-24T16:08:15.893Z,11.67
2018-02-24T16:10:44.178Z,46.47
2018-02-24T16:13:13.332Z,12.33
2018-02-24T16:15:42.495Z,10.80
2018-02-24T16:18:11.631Z,33.63
2018-02-24T16:20:39.940Z,16.20
2018-02-24T16:23:08.211Z,14.10
2018-02-24T16:25:37.775Z,11.40
2018-02-24T16:28:06.943Z,15.37
2018-02-24T16:30:36.271Z,15.47
2018-02-24T16:33:04.903Z,10.47
2018-02-24T16:35:33.996Z,20.57
2018-02-24T16:38:02.317Z,8.73
2018-02-24T16:40:30.658Z,16.67
2018-02-24T16:42:58.949Z,9.43
2018-02-24T16:45:27.342Z,9.43
2018-02-24T16:47:55.653Z,30.63
2018-02-24T16:50:24.741Z,23.23
2018-02-24T16:52:53.824Z,43.17
2018-02-24T16:55:22.823Z,306.87
2018-02-24T16:57:51.625Z,29.20
2018-02-24T17:00:19.955Z,45.37
2018-02-24T17:02:48.232Z,61.50
2018-02-24T17:05:16.563Z,13.93
2018-02-24T17:07:45.042Z,11.70
2018-02-24T17:10:13.407Z,14.57
2018-02-24T17:12:42.368Z,39.63
2018-02-24T17:15:10.733Z,18.30
2018-02-24T17:17:39.016Z,61.60
2018-02-24T17:20:07.284Z,31.13
2018-02-24T17:22:35.607Z,10.17
2018-02-24T17:25:03.885Z,13.17
2018-02-24T17:27:32.160Z,120.43
2018-02-24T17:30:01.237Z,12.03
2018-02-24T17:32:29.945Z,49.80
2018-02-24T17:34:58.181Z,27.03
2018-02-24T17:37:26.502Z,9.60
2018-02-24T17:39:54.749Z,11.97
2018-02-24T17:42:23.065Z,8.70
2018-02-24T17:44:51.334Z,10.37
2018-02-24T17:47:19.594Z,9.40
2018-02-24T17:49:48.642Z,7.23
2018-02-24T17:52:16.895Z,11.00
2018-02-24T17:54:45.216Z,8.53
2018-02-24T17:57:13.512Z,10.13
2018-02-24T17:59:42.524Z,13.77
2018-02-24T18:02:10.854Z,7.60
2018-02-24T18:04:39.185Z,8.10
2018-02-24T18:07:07.499Z,10.70
2018-02-24T18:09:35.784Z,17.73
2018-02-24T18:12:04.038Z,41.33
2018-02-24T18:14:32.423Z,175.10
2018-02-24T18:17:00.674Z,10.20
2018-02-24T18:19:28.952Z,9.70
2018-02-24T18:21:58.115Z,8.30
2018-02-24T18:24:26.454Z,9.77
2018-02-24T18:26:54.743Z,8.60
2018-02-24T18:29:23.060Z,9.53
2018-02-24T18:31:51.330Z,8.17
2018-02-24T18:34:19.615Z,9.10
2018-02-24T18:36:48.035Z,9.83
2018-02-24T18:39:16.279Z,8.27
2018-02-24T18:41:44.589Z,12.83
2018-02-24T18:44:12.996Z,7.10
2018-02-24T18:46:42.775Z,9.60
2018-02-24T18:49:11.176Z,8.43
2018-02-24T18:51:39.411Z,14.73
2018-02-24T18:54:07.677Z,5.60
2018-02-24T18:56:35.978Z,37.53
2018-02-24T18:59:04.255Z,8.60
2018-02-24T19:01:32.490Z,8.00
2018-02-24T19:04:00.814Z,7.77
2018-02-24T19:06:29.054Z,7.45
2018-02-24T19:08:57.360Z,7.97
2018-02-24T19:11:25.775Z,7.00
2018-02-24T19:13:54.790Z,5.60
2018-02-24T19:16:23.050Z,6.60
2018-02-24T19:18:51.595Z,6.20
2018-02-24T19:21:19.849Z,6.00
2018-02-24T19:23:48.199Z,5.70
2018-02-24T19:26:16.541Z,5.30
2018-02-24T19:28:44.834Z,5.97
2018-02-24T19:31:13.310Z,5.57
2018-02-24T19:33:42.452Z,5.80
2018-02-24T19:36:10.698Z,6.70
2018-02-24T19:38:39.126Z,5.12
2018-02-24T19:41:07.466Z,5.70
2018-02-24T19:43:35.793Z,5.00
2018-02-24T19:46:04.161Z,6.70
2018-02-24T19:48:32.456Z,6.35
2018-02-24T19:51:00.799Z,5.90
2018-02-24T19:53:29.209Z,6.07
2018-02-24T19:55:58.310Z,5.53
2018-02-24T19:58:26.558Z,6.77
2018-02-24T20:00:54.965Z,6.87
2018-02-24T20:03:24.073Z,6.95
2018-02-24T20:05:53.236Z,7.43
2018-02-24T20:08:21.569Z,5.40
2018-02-24T20:10:49.869Z,6.12
2018-02-24T20:13:18.141Z,5.90
2018-02-24T20:15:46.410Z,7.30
2018-02-24T20:18:14.730Z,6.18
2018-02-24T20:20:43.073Z,6.10
2018-02-24T20:23:11.338Z,7.27
2018-02-24T20:25:39.724Z,5.35
2018-02-24T20:28:07.987Z,5.97
2018-02-24T20:30:36.290Z,5.57
2018-02-24T20:33:04.638Z,8.53
2018-02-24T20:35:32.903Z,10.20
2018-02-24T20:38:01.365Z,7.27
2018-02-24T20:40:29.766Z,8.15
2018-02-24T20:42:58.042Z,8.60
2018-02-24T20:45:26.379Z,6.75
2018-02-24T20:47:54.700Z,9.10
2018-02-24T20:50:23.157Z,9.40
2018-02-24T20:52:52.621Z,10.00
2018-02-24T20:55:20.997Z,10.82
2018-02-24T20:57:49.278Z,12.00
2018-02-24T21:00:17.708Z,7.40
2018-02-24T21:02:46.044Z,7.40
2018-02-24T21:05:14.334Z,6.90
2018-02-24T21:07:43.353Z,6.05
2018-02-24T21:10:11.685Z,9.30
2018-02-24T21:12:39.966Z,8.77
2018-02-24T21:15:08.281Z,6.15
2018-02-24T21:17:36.585Z,10.03
2018-02-24T21:20:05.330Z,8.23
2018-02-24T21:22:34.871Z,8.60
2018-02-24T21:25:03.153Z,9.30
2018-02-24T21:27:32.202Z,9.32
2018-02-24T21:30:00.539Z,8.48
2018-02-24T21:32:28.828Z,8.43
2018-02-24T21:34:57.077Z,9.57
2018-02-24T21:37:25.439Z,8.20
2018-02-24T21:39:53.732Z,9.70
2018-02-24T21:42:22.931Z,8.57
2018-02-24T21:44:51.270Z,8.52
2018-02-24T21:47:20.466Z,8.57
2018-02-24T21:49:49.468Z,7.67
2018-02-24T21:52:19.071Z,8.50
2018-02-24T21:54:48.147Z,7.93
2018-02-24T21:57:16.450Z,9.00
2018-02-24T21:59:44.824Z,10.60
2018-02-24T22:02:13.174Z,9.87
2018-02-24T22:04:41.481Z,9.45
2018-02-24T22:07:09.763Z,8.75
2018-02-24T22:09:38.316Z,9.05
2018-02-24T22:12:07.406Z,8.68
2018-02-24T22:14:36.472Z,9.18
2018-02-24T22:17:05.557Z,9.53
2018-02-24T22:19:33.828Z,9.68
2018-02-24T22:22:02.129Z,9.90
2018-02-24T22:24:31.959Z,8.70
2018-02-24T22:27:00.984Z,8.82
2018-02-24T22:29:29.274Z,10.57
2018-02-24T22:31:57.601Z,9.27
2018-02-24T22:34:25.874Z,8.85
2018-02-24T22:36:54.191Z,11.80
2018-02-24T22:39:22.495Z,9.98
2018-02-24T22:41:50.817Z,9.70
2018-02-24T22:44:19.964Z,7.18
2018-02-24T22:46:48.348Z,10.40
2018-02-24T22:49:16.682Z,10.98
2018-02-24T22:51:44.995Z,9.18
2018-02-24T22:54:13.286Z,9.88
2018-02-24T22:56:41.550Z,8.70
2018-02-24T22:59:09.826Z,8.68
2018-02-24T23:01:38.128Z,10.07
2018-02-24T23:04:06.397Z,8.90
2018-02-24T23:06:34.699Z,10.40
2018-02-24T23:09:03.094Z,8.93
2018-02-24T23:11:31.426Z,11.15
2018-02-24T23:13:59.730Z,9.60
2018-02-24T23:16:28.035Z,8.98
2018-02-24T23:18:56.341Z,9.00
2018-02-24T23:21:24.712Z,8.07
2018-02-24T23:23:53.098Z,10.65
2018-02-24T23:26:21.754Z,10.52
2018-02-24T23:28:50.054Z,11.90
2018-02-24T23:31:18.435Z,8.13
2018-02-24T23:33:46.715Z,9.75
2018-02-24T23:36:15.039Z,8.98
2018-02-24T23:38:44.125Z,10.57
2018-02-24T23:41:13.141Z,9.40
2018-02-24T23:43:41.402Z,12.00
2018-02-24T23:46:10.462Z,10.32
2018-02-24T23:48:38.924Z,10.68
2018-02-24T23:51:07.963Z,17.60
2018-02-24T23:53:37.023Z,12.07
2018-02-24T23:56:05.394Z,10.25
2018-02-24T23:58:33.666Z,9.40
